createdAt,value
2023-03-19T00:01:19.138Z,5.51
2023-03-19T00:06:22.896Z,5.63
2023-03-19T00:11:25.101Z,5.68
2023-03-19T00:16:27.179Z,5.60
2023-03-19T00:21:30.641Z,5.70
2023-03-19T00:26:34.202Z,5.65
2023-03-19T00:31:36.023Z,5.71
2023-03-19T00:36:37.843Z,5.80
2023-03-19T00:41:39.502Z,6.10
2023-03-19T00:46:41.198Z,6.02
2023-03-19T00:51:44.089Z,5.87
2023-03-19T00:56:46.472Z,5.64
2023-03-19T01:01:48.183Z,5.52
2023-03-19T01:06:50.026Z,5.48
2023-03-19T01:11:51.863Z,5.41
2023-03-19T01:16:53.510Z,5.16
2023-03-19T01:21:55.168Z,5.06
2023-03-19T01:26:58.490Z,4.99
2023-03-19T01:32:08.366Z,4.89
2023-03-19T01:37:21.814Z,4.78
2023-03-19T01:42:23.911Z,4.75
2023-03-19T01:47:52.723Z,4.81
2023-03-19T01:53:14.935Z,4.84
2023-03-19T01:58:26.648Z,4.86
2023-03-19T02:03:52.696Z,4.81
2023-03-19T02:09:01.932Z,4.69
2023-03-19T02:14:03.666Z,4.61
2023-03-19T02:19:11.894Z,4.58
2023-03-19T02:24:28.895Z,4.51
2023-03-19T02:29:38.488Z,4.57
2023-03-19T02:34:41.542Z,4.54
2023-03-19T02:39:49.466Z,4.55
2023-03-19T02:44:51.215Z,4.51
2023-03-19T02:49:53.114Z,4.52
2023-03-19T02:54:56.827Z,4.49
2023-03-19T02:59:59.396Z,4.48
2023-03-19T03:05:01.063Z,4.48
2023-03-19T03:10:02.792Z,4.37
2023-03-19T03:15:06.738Z,4.26
2023-03-19T03:20:11.452Z,4.18
2023-03-19T03:25:13.866Z,4.10
2023-03-19T03:30:16.964Z,4.13
2023-03-19T03:35:22.259Z,4.11
2023-03-19T03:40:23.927Z,4.00
2023-03-19T03:45:25.652Z,4.00
2023-03-19T03:50:27.981Z,3.95
2023-03-19T03:55:33.075Z,3.84
2023-03-19T04:00:35.261Z,3.77
2023-03-19T04:05:37.879Z,3.66
2023-03-19T04:10:42.422Z,3.57
2023-03-19T04:15:44.623Z,3.51
2023-03-19T04:20:47.708Z,3.27
2023-03-19T04:25:49.454Z,3.24
2023-03-19T04:30:51.593Z,3.22
2023-03-19T04:35:56.612Z,3.09
2023-03-19T04:40:58.834Z,3.02
2023-03-19T04:46:01.384Z,3.07
2023-03-19T04:51:04.035Z,3.08
2023-03-19T04:56:07.957Z,3.04
2023-03-19T05:01:10.170Z,3.13
2023-03-19T05:06:47.208Z,3.12
2023-03-19T05:11:50.300Z,3.11
2023-03-19T05:16:54.915Z,3.07
2023-03-19T05:21:59.596Z,3.09
2023-03-19T05:27:02.832Z,3.14
2023-03-19T05:32:14.002Z,3.18
2023-03-19T05:37:17.157Z,3.18
2023-03-19T05:42:22.848Z,3.22
2023-03-19T05:47:25.043Z,3.23
2023-03-19T05:52:29.966Z,3.17
2023-03-19T05:57:34.577Z,3.25
2023-03-19T06:02:43.043Z,3.24
2023-03-19T06:08:03.076Z,3.28
2023-03-19T06:13:43.523Z,3.51
2023-03-19T06:18:50.132Z,3.84
2023-03-19T06:23:51.926Z,4.13
2023-03-19T06:28:59.395Z,4.61
2023-03-19T06:34:01.239Z,4.99
2023-03-19T06:39:14.171Z,5.36
2023-03-19T06:44:16.368Z,5.65
2023-03-19T06:49:18.104Z,6.04
2023-03-19T06:54:19.797Z,6.44
2023-03-19T06:59:21.442Z,6.82
2023-03-19T07:04:23.139Z,7.14
2023-03-19T07:09:24.837Z,7.39
2023-03-19T07:14:26.615Z,7.56
2023-03-19T07:19:28.302Z,7.86
2023-03-19T07:24:29.928Z,8.23
2023-03-19T07:29:31.634Z,8.59
2023-03-19T07:34:33.310Z,8.93
2023-03-19T07:39:34.986Z,9.16
2023-03-19T07:44:36.591Z,9.36
2023-03-19T07:49:38.183Z,9.39
2023-03-19T07:54:39.956Z,9.51
2023-03-19T07:59:41.541Z,10.19
2023-03-19T08:04:43.282Z,10.75
2023-03-19T08:09:44.998Z,11.21
2023-03-19T08:14:46.621Z,11.63
2023-03-19T08:19:48.269Z,12.05
2023-03-19T08:24:49.920Z,12.26
2023-03-19T08:29:51.544Z,12.43
2023-03-19T08:34:53.207Z,12.53
2023-03-19T08:39:54.910Z,12.57
2023-03-19T08:44:56.597Z,12.60
2023-03-19T08:49:58.198Z,12.93
2023-03-19T08:54:59.808Z,13.04
2023-03-19T09:00:01.974Z,13.09
2023-03-19T09:05:04.299Z,13.21
2023-03-19T09:10:06.569Z,13.26
2023-03-19T09:15:08.580Z,13.52
2023-03-19T09:20:10.889Z,13.97
2023-03-19T09:25:12.579Z,14.01
2023-03-19T09:30:16.692Z,14.33
2023-03-19T09:35:18.403Z,15.23
2023-03-19T09:40:25.216Z,15.15
2023-03-19T09:45:29.728Z,15.27
2023-03-19T09:50:35.011Z,15.23
2023-03-19T09:55:51.510Z,15.37
2023-03-19T10:00:54.039Z,15.51
2023-03-19T10:06:13.891Z,15.24
2023-03-19T10:11:33.560Z,15.75
2023-03-19T10:16:40.009Z,15.75
2023-03-19T10:22:04.198Z,16.36
2023-03-19T10:27:12.865Z,16.06
2023-03-19T10:32:18.946Z,16.61
2023-03-19T10:37:27.936Z,16.79
2023-03-19T10:43:16.360Z,16.86
2023-03-19T10:48:19.096Z,17.10
2023-03-19T10:53:30.744Z,17.25
2023-03-19T10:58:34.988Z,17.11
2023-03-19T11:03:56.184Z,17.45
2023-03-19T11:09:03.049Z,17.37
2023-03-19T11:14:10.147Z,17.55
2023-03-19T11:19:41.044Z,17.13
2023-03-19T11:24:50.561Z,16.82
2023-03-19T11:29:52.260Z,16.58
2023-03-19T11:35:03.186Z,17.60
2023-03-19T11:40:22.008Z,18.41
2023-03-19T11:45:37.418Z,19.63
2023-03-19T11:50:48.456Z,20.24
2023-03-19T11:56:17.547Z,19.91
2023-03-19T12:01:34.842Z,20.16
2023-03-19T12:07:00.949Z,19.73
2023-03-19T12:12:18.071Z,18.77
2023-03-19T12:17:43.793Z,18.89
2023-03-19T12:22:59.540Z,18.69
2023-03-19T12:28:04.020Z,17.04
2023-03-19T12:33:30.624Z,16.11
2023-03-19T12:38:45.341Z,16.92
2023-03-19T12:44:21.821Z,17.59
2023-03-19T12:49:38.976Z,18.57
2023-03-19T12:54:45.844Z,17.05
2023-03-19T13:00:02.410Z,15.94
2023-03-19T13:05:09.849Z,15.74
2023-03-19T13:10:19.645Z,15.29
2023-03-19T13:15:29.014Z,14.80
2023-03-19T13:20:53.919Z,15.17
2023-03-19T13:25:58.942Z,14.87
2023-03-19T13:31:06.211Z,14.30
2023-03-19T13:36:14.597Z,14.38
2023-03-19T13:41:35.319Z,14.35
2023-03-19T13:46:39.600Z,14.22
2023-03-19T13:51:41.639Z,14.23
2023-03-19T13:57:00.968Z,14.07
2023-03-19T14:02:25.533Z,13.72
2023-03-19T14:07:30.433Z,13.22
2023-03-19T14:12:38.205Z,13.05
2023-03-19T14:17:47.009Z,12.90
2023-03-19T14:22:57.216Z,12.56
2023-03-19T14:28:09.775Z,12.16
2023-03-19T14:33:22.341Z,11.96
2023-03-19T14:38:44.028Z,11.94
2023-03-19T14:44:05.769Z,11.89
2023-03-19T14:49:13.274Z,11.71
2023-03-19T14:54:21.713Z,11.47
2023-03-19T14:59:23.559Z,11.23
2023-03-19T15:04:26.250Z,11.22
2023-03-19T15:09:31.891Z,11.26
2023-03-19T15:15:02.116Z,11.20
2023-03-19T15:20:17.209Z,11.10
2023-03-19T15:25:19.541Z,11.07
2023-03-19T15:30:24.831Z,10.96
2023-03-19T15:35:34.418Z,11.05
2023-03-19T15:40:37.919Z,11.11
2023-03-19T15:45:44.959Z,11.23
2023-03-19T15:50:49.574Z,11.51
2023-03-19T15:55:54.473Z,11.69
2023-03-19T16:00:56.751Z,11.65
2023-03-19T16:06:05.069Z,11.64
2023-03-19T16:11:15.486Z,11.69
2023-03-19T16:16:22.386Z,11.75
2023-03-19T16:21:41.340Z,11.70
2023-03-19T16:26:44.671Z,11.52
2023-03-19T16:31:52.171Z,11.38
2023-03-19T16:36:53.978Z,11.24
2023-03-19T16:42:29.688Z,10.99
2023-03-19T16:47:31.430Z,10.81
2023-03-19T16:52:33.704Z,10.57
2023-03-19T16:57:35.401Z,10.44
2023-03-19T17:02:37.045Z,10.48
2023-03-19T17:07:38.668Z,10.21
2023-03-19T17:12:40.447Z,9.94
2023-03-19T17:17:42.169Z,9.70
2023-03-19T17:22:43.871Z,9.46
2023-03-19T17:27:45.867Z,9.25
2023-03-19T17:32:49.806Z,9.00
2023-03-19T17:37:52.583Z,8.81
2023-03-19T17:42:55.363Z,8.61
2023-03-19T17:47:58.380Z,8.68
2023-03-19T17:53:00.436Z,8.40
2023-03-19T17:58:02.063Z,8.21
2023-03-19T18:03:03.698Z,8.04
2023-03-19T18:08:05.465Z,7.88
2023-03-19T18:13:07.702Z,7.70
2023-03-19T18:18:20.307Z,7.52
2023-03-19T18:23:24.105Z,7.33
2023-03-19T18:28:25.805Z,7.12
2023-03-19T18:33:31.002Z,6.92
2023-03-19T18:38:32.877Z,6.83
2023-03-19T18:43:35.043Z,6.64
2023-03-19T18:48:36.727Z,6.73
2023-03-19T18:53:38.948Z,6.73
2023-03-19T18:58:40.987Z,6.70
2023-03-19T19:03:45.156Z,6.66
2023-03-19T19:08:46.883Z,6.73
2023-03-19T19:13:56.720Z,6.54
2023-03-19T19:18:59.640Z,6.33
2023-03-19T19:24:04.109Z,6.13
2023-03-19T19:29:05.874Z,6.07
2023-03-19T19:34:07.568Z,5.91
2023-03-19T19:39:11.583Z,5.71
2023-03-19T19:44:22.167Z,5.49
2023-03-19T19:49:25.112Z,5.43
2023-03-19T19:54:26.808Z,5.38
2023-03-19T19:59:28.526Z,5.42
2023-03-19T20:04:30.647Z,5.44
2023-03-19T20:09:32.320Z,5.69
2023-03-19T20:14:33.947Z,5.73
2023-03-19T20:19:35.545Z,5.77
2023-03-19T20:24:37.529Z,5.79
2023-03-19T20:29:40.055Z,5.55
2023-03-19T20:34:41.677Z,5.35
2023-03-19T20:39:44.368Z,5.13
2023-03-19T20:44:46.607Z,4.98
2023-03-19T20:49:49.039Z,4.96
2023-03-19T20:54:50.728Z,5.05
2023-03-19T20:59:52.336Z,5.07
2023-03-19T21:04:54.060Z,5.03
2023-03-19T21:09:57.610Z,5.01
2023-03-19T21:15:00.850Z,5.03
2023-03-19T21:20:02.539Z,5.32
2023-03-19T21:25:07.267Z,5.50
2023-03-19T21:30:16.387Z,5.54
2023-03-19T21:35:22.787Z,5.48
2023-03-19T21:40:31.226Z,5.41
2023-03-19T21:45:38.547Z,5.56
2023-03-19T21:50:40.275Z,5.42
2023-03-19T21:55:42.429Z,5.64
2023-03-19T22:00:44.711Z,5.83
2023-03-19T22:05:50.948Z,6.32
2023-03-19T22:10:56.873Z,6.16
2023-03-19T22:16:01.304Z,6.29
2023-03-19T22:21:02.941Z,6.14
2023-03-19T22:26:30.961Z,5.86
2023-03-19T22:31:34.030Z,5.63
2023-03-19T22:36:35.929Z,5.66
2023-03-19T22:41:42.583Z,5.74
2023-03-19T22:46:44.471Z,5.92
2023-03-19T22:51:47.279Z,6.36
2023-03-19T22:56:48.887Z,6.54
2023-03-19T23:01:50.528Z,6.58
2023-03-19T23:06:54.542Z,6.88
2023-03-19T23:11:57.900Z,6.88
2023-03-19T23:17:07.337Z,6.69
2023-03-19T23:22:15.773Z,6.54
2023-03-19T23:27:26.682Z,6.52
2023-03-19T23:32:28.889Z,6.48
2023-03-19T23:37:30.779Z,6.62
2023-03-19T23:42:32.538Z,6.75
2023-03-19T23:47:35.272Z,6.83
2023-03-19T23:52:36.855Z,7.21
2023-03-19T23:57:38.892Z,7.25
